sensor_id;sensor_type;location;lat;lon;timestamp;temperature;humidity
31391;DHT22;18022;45.492;11.548;2022-10-31T00:00:28;14.30;99.90
31391;DHT22;18022;45.492;11.548;2022-10-31T00:02:54;14.30;99.90
31391;DHT22;18022;45.492;11.548;2022-10-31T00:05:21;14.30;99.90
31391;DHT22;18022;45.492;11.548;2022-10-31T00:07:46;14.30;99.90
31391;DHT22;18022;45.492;11.548;2022-10-31T00:10:12;14.30;99.90
31391;DHT22;18022;45.492;11.548;2022-10-31T00:12:37;14.30;99.90
31391;DHT22;18022;45.492;11.548;2022-10-31T00:15:03;14.30;99.90
31391;DHT22;18022;45.492;11.548;2022-10-31T00:17:29;14.20;99.90
31391;DHT22;18022;45.492;11.548;2022-10-31T00:19:55;14.30;99.90
31391;DHT22;18022;45.492;11.548;2022-10-31T00:22:20;14.20;99.90
31391;DHT22;18022;45.492;11.548;2022-10-31T00:24:46;14.10;99.90
31391;DHT22;18022;45.492;11.548;2022-10-31T00:27:12;14.10;99.90
31391;DHT22;18022;45.492;11.548;2022-10-31T00:29:37;14.30;99.90
31391;DHT22;18022;45.492;11.548;2022-10-31T00:32:03;14.40;99.90
31391;DHT22;18022;45.492;11.548;2022-10-31T00:34:29;14.30;99.90
31391;DHT22;18022;45.492;11.548;2022-10-31T00:36:54;14.20;99.90
31391;DHT22;18022;45.492;11.548;2022-10-31T00:39:20;14.00;99.90
31391;DHT22;18022;45.492;11.548;2022-10-31T00:41:46;13.80;99.90
31391;DHT22;18022;45.492;11.548;2022-10-31T00:44:11;13.80;99.90
31391;DHT22;18022;45.492;11.548;2022-10-31T00:46:37;14.00;99.90
31391;DHT22;18022;45.492;11.548;2022-10-31T00:49:03;14.00;99.90
31391;DHT22;18022;45.492;11.548;2022-10-31T00:51:28;13.70;99.90
31391;DHT22;18022;45.492;11.548;2022-10-31T00:53:54;13.80;99.90
31391;DHT22;18022;45.492;11.548;2022-10-31T00:56:19;14.20;99.90
31391;DHT22;18022;45.492;11.548;2022-10-31T00:58:45;14.40;99.90
31391;DHT22;18022;45.492;11.548;2022-10-31T01:01:11;14.10;99.90
31391;DHT22;18022;45.492;11.548;2022-10-31T01:03:36;13.80;99.90
31391;DHT22;18022;45.492;11.548;2022-10-31T01:06:11;13.70;99.90
31391;DHT22;18022;45.492;11.548;2022-10-31T01:08:38;13.70;99.90
31391;DHT22;18022;45.492;11.548;2022-10-31T01:13:31;13.70;99.90
31391;DHT22;18022;45.492;11.548;2022-10-31T01:15:58;13.70;99.90
31391;DHT22;18022;45.492;11.548;2022-10-31T01:18:25;13.70;99.90
31391;DHT22;18022;45.492;11.548;2022-10-31T01:21:21;13.60;99.90
31391;DHT22;18022;45.492;11.548;2022-10-31T01:23:47;13.60;99.90
31391;DHT22;18022;45.492;11.548;2022-10-31T01:26:19;13.60;99.90
31391;DHT22;18022;45.492;11.548;2022-10-31T01:28:50;13.70;99.90
31391;DHT22;18022;45.492;11.548;2022-10-31T01:31:18;13.90;99.90
31391;DHT22;18022;45.492;11.548;2022-10-31T01:33:43;14.10;99.90
31391;DHT22;18022;45.492;11.548;2022-10-31T01:38:38;14.30;99.90
31391;DHT22;18022;45.492;11.548;2022-10-31T01:41:04;14.10;99.90
31391;DHT22;18022;45.492;11.548;2022-10-31T01:44:03;13.90;99.90
31391;DHT22;18022;45.492;11.548;2022-10-31T01:49:17;13.90;99.90
31391;DHT22;18022;45.492;11.548;2022-10-31T01:55:02;13.50;99.90
31391;DHT22;18022;45.492;11.548;2022-10-31T01:57:29;13.50;99.90
31391;DHT22;18022;45.492;11.548;2022-10-31T01:59:59;13.60;99.90
31391;DHT22;18022;45.492;11.548;2022-10-31T02:02:27;13.70;99.90
31391;DHT22;18022;45.492;11.548;2022-10-31T02:04:56;13.80;99.90
31391;DHT22;18022;45.492;11.548;2022-10-31T02:07:29;13.80;99.90
31391;DHT22;18022;45.492;11.548;2022-10-31T02:09:57;13.70;99.90
31391;DHT22;18022;45.492;11.548;2022-10-31T02:12:23;13.60;99.90
31391;DHT22;18022;45.492;11.548;2022-10-31T02:14:50;13.50;99.90
31391;DHT22;18022;45.492;11.548;2022-10-31T02:17:16;13.50;99.90
31391;DHT22;18022;45.492;11.548;2022-10-31T02:20:13;13.50;99.90
31391;DHT22;18022;45.492;11.548;2022-10-31T02:29:36;13.90;99.90
31391;DHT22;18022;45.492;11.548;2022-10-31T02:40:23;13.40;99.90
31391;DHT22;18022;45.492;11.548;2022-10-31T02:48:23;12.80;99.90
31391;DHT22;18022;45.492;11.548;2022-10-31T02:50:56;12.80;99.90
31391;DHT22;18022;45.492;11.548;2022-10-31T02:53:23;13.00;99.90
31391;DHT22;18022;45.492;11.548;2022-10-31T02:56:14;13.20;99.90
31391;DHT22;18022;45.492;11.548;2022-10-31T03:07:08;13.10;99.90
31391;DHT22;18022;45.492;11.548;2022-10-31T03:12:29;13.00;99.90
31391;DHT22;18022;45.492;11.548;2022-10-31T03:15:12;13.10;99.90
31391;DHT22;18022;45.492;11.548;2022-10-31T03:18:02;13.10;99.90
31391;DHT22;18022;45.492;11.548;2022-10-31T03:20:42;13.20;99.90
31391;DHT22;18022;45.492;11.548;2022-10-31T03:23:13;12.90;99.90
31391;DHT22;18022;45.492;11.548;2022-10-31T03:25:41;12.80;99.90
31391;DHT22;18022;45.492;11.548;2022-10-31T03:28:08;12.60;99.90
31391;DHT22;18022;45.492;11.548;2022-10-31T03:30:37;12.40;99.90
31391;DHT22;18022;45.492;11.548;2022-10-31T03:33:08;12.40;99.90
31391;DHT22;18022;45.492;11.548;2022-10-31T03:35:36;12.60;99.90
31391;DHT22;18022;45.492;11.548;2022-10-31T03:38:03;12.70;99.90
31391;DHT22;18022;45.492;11.548;2022-10-31T03:40:29;12.60;99.90
31391;DHT22;18022;45.492;11.548;2022-10-31T03:43:00;12.40;99.90
31391;DHT22;18022;45.492;11.548;2022-10-31T03:45:30;12.50;99.90
31391;DHT22;18022;45.492;11.548;2022-10-31T03:48:00;12.50;99.90
31391;DHT22;18022;45.492;11.548;2022-10-31T03:50:33;12.40;99.90
31391;DHT22;18022;45.492;11.548;2022-10-31T03:53:10;12.50;99.90
31391;DHT22;18022;45.492;11.548;2022-10-31T03:58:06;12.90;99.90
31391;DHT22;18022;45.492;11.548;2022-10-31T04:00:34;12.80;99.90
31391;DHT22;18022;45.492;11.548;2022-10-31T04:03:03;12.80;99.90
31391;DHT22;18022;45.492;11.548;2022-10-31T04:05:30;12.70;99.90
31391;DHT22;18022;45.492;11.548;2022-10-31T04:07:58;12.60;99.90
31391;DHT22;18022;45.492;11.548;2022-10-31T04:10:26;12.50;99.90
31391;DHT22;18022;45.492;11.548;2022-10-31T04:12:54;12.70;99.90
31391;DHT22;18022;45.492;11.548;2022-10-31T04:15:24;12.80;99.90
31391;DHT22;18022;45.492;11.548;2022-10-31T04:17:53;12.90;99.90
31391;DHT22;18022;45.492;11.548;2022-10-31T04:20:39;13.00;99.90
31391;DHT22;18022;45.492;11.548;2022-10-31T04:23:17;13.10;99.90
31391;DHT22;18022;45.492;11.548;2022-10-31T04:25:43;12.90;99.90
31391;DHT22;18022;45.492;11.548;2022-10-31T04:28:09;12.80;99.90
31391;DHT22;18022;45.492;11.548;2022-10-31T04:30:35;12.60;99.90
31391;DHT22;18022;45.492;11.548;2022-10-31T04:33:00;12.60;99.90
31391;DHT22;18022;45.492;11.548;2022-10-31T04:35:26;12.60;99.90
31391;DHT22;18022;45.492;11.548;2022-10-31T04:37:51;12.50;99.90
31391;DHT22;18022;45.492;11.548;2022-10-31T04:40:17;12.50;99.90
31391;DHT22;18022;45.492;11.548;2022-10-31T04:42:43;12.50;99.90
31391;DHT22;18022;45.492;11.548;2022-10-31T04:45:09;12.60;99.90
31391;DHT22;18022;45.492;11.548;2022-10-31T04:47:34;12.70;99.90
31391;DHT22;18022;45.492;11.548;2022-10-31T04:50:01;12.80;99.90
31391;DHT22;18022;45.492;11.548;2022-10-31T04:52:27;12.80;99.90
31391;DHT22;18022;45.492;11.548;2022-10-31T04:54:52;12.80;99.90
31391;DHT22;18022;45.492;11.548;2022-10-31T04:57:18;12.60;99.90
31391;DHT22;18022;45.492;11.548;2022-10-31T04:59:43;12.30;99.90
31391;DHT22;18022;45.492;11.548;2022-10-31T05:02:09;12.20;99.90
31391;DHT22;18022;45.492;11.548;2022-10-31T05:04:35;12.10;99.90
31391;DHT22;18022;45.492;11.548;2022-10-31T05:07:00;12.00;99.90
31391;DHT22;18022;45.492;11.548;2022-10-31T05:09:26;12.30;99.90
31391;DHT22;18022;45.492;11.548;2022-10-31T05:11:52;12.30;99.90
31391;DHT22;18022;45.492;11.548;2022-10-31T05:14:17;12.30;99.90
31391;DHT22;18022;45.492;11.548;2022-10-31T05:16:43;12.20;99.90
31391;DHT22;18022;45.492;11.548;2022-10-31T05:19:09;12.20;99.90
31391;DHT22;18022;45.492;11.548;2022-10-31T05:21:34;12.40;99.90
31391;DHT22;18022;45.492;11.548;2022-10-31T05:24:00;12.50;99.90
31391;DHT22;18022;45.492;11.548;2022-10-31T05:26:26;12.60;99.90
31391;DHT22;18022;45.492;11.548;2022-10-31T05:28:51;12.70;99.90
31391;DHT22;18022;45.492;11.548;2022-10-31T05:31:17;12.70;99.90
31391;DHT22;18022;45.492;11.548;2022-10-31T05:33:42;12.60;99.90
31391;DHT22;18022;45.492;11.548;2022-10-31T05:36:08;12.50;99.90
31391;DHT22;18022;45.492;11.548;2022-10-31T05:38:34;12.50;99.90
31391;DHT22;18022;45.492;11.548;2022-10-31T05:41:00;12.60;99.90
31391;DHT22;18022;45.492;11.548;2022-10-31T05:43:27;12.70;99.90
31391;DHT22;18022;45.492;11.548;2022-10-31T05:45:56;12.70;99.90
31391;DHT22;18022;45.492;11.548;2022-10-31T05:48:22;12.40;99.90
31391;DHT22;18022;45.492;11.548;2022-10-31T05:50:48;12.20;99.90
31391;DHT22;18022;45.492;11.548;2022-10-31T05:53:14;12.20;99.90
31391;DHT22;18022;45.492;11.548;2022-10-31T05:55:42;12.00;99.90
31391;DHT22;18022;45.492;11.548;2022-10-31T05:58:08;12.10;99.90
31391;DHT22;18022;45.492;11.548;2022-10-31T06:00:34;12.20;99.90
31391;DHT22;18022;45.492;11.548;2022-10-31T06:03:05;12.30;99.90
31391;DHT22;18022;45.492;11.548;2022-10-31T06:05:31;12.30;99.90
31391;DHT22;18022;45.492;11.548;2022-10-31T06:07:58;12.30;99.90
31391;DHT22;18022;45.492;11.548;2022-10-31T06:10:24;12.40;99.90
31391;DHT22;18022;45.492;11.548;2022-10-31T06:12:49;12.40;99.90
31391;DHT22;18022;45.492;11.548;2022-10-31T06:15:16;12.40;99.90
31391;DHT22;18022;45.492;11.548;2022-10-31T06:17:41;12.30;99.90
31391;DHT22;18022;45.492;11.548;2022-10-31T06:20:08;12.20;99.90
31391;DHT22;18022;45.492;11.548;2022-10-31T06:22:34;12.30;99.90
31391;DHT22;18022;45.492;11.548;2022-10-31T06:24:59;12.30;99.90
31391;DHT22;18022;45.492;11.548;2022-10-31T06:27:25;12.30;99.90
31391;DHT22;18022;45.492;11.548;2022-10-31T06:29:51;12.30;99.90
31391;DHT22;18022;45.492;11.548;2022-10-31T06:32:17;12.30;99.90
31391;DHT22;18022;45.492;11.548;2022-10-31T06:34:43;12.40;99.90
31391;DHT22;18022;45.492;11.548;2022-10-31T06:37:11;12.50;99.90
31391;DHT22;18022;45.492;11.548;2022-10-31T06:39:36;12.60;99.90
31391;DHT22;18022;45.492;11.548;2022-10-31T06:42:03;12.60;99.90
31391;DHT22;18022;45.492;11.548;2022-10-31T06:44:29;12.70;99.90
31391;DHT22;18022;45.492;11.548;2022-10-31T06:46:55;12.80;99.90
31391;DHT22;18022;45.492;11.548;2022-10-31T06:49:21;12.70;99.90
31391;DHT22;18022;45.492;11.548;2022-10-31T06:51:47;12.70;99.90
31391;DHT22;18022;45.492;11.548;2022-10-31T06:54:13;12.70;99.90
31391;DHT22;18022;45.492;11.548;2022-10-31T06:56:39;12.80;99.90
31391;DHT22;18022;45.492;11.548;2022-10-31T06:59:05;12.80;99.90
31391;DHT22;18022;45.492;11.548;2022-10-31T07:01:30;12.90;99.90
31391;DHT22;18022;45.492;11.548;2022-10-31T07:03:56;12.90;99.90
31391;DHT22;18022;45.492;11.548;2022-10-31T07:06:22;12.90;99.90
31391;DHT22;18022;45.492;11.548;2022-10-31T07:08:47;12.90;99.90
31391;DHT22;18022;45.492;11.548;2022-10-31T07:11:13;12.80;99.90
31391;DHT22;18022;45.492;11.548;2022-10-31T07:13:39;12.80;99.90
31391;DHT22;18022;45.492;11.548;2022-10-31T07:16:05;12.80;99.90
31391;DHT22;18022;45.492;11.548;2022-10-31T07:18:36;12.90;99.90
31391;DHT22;18022;45.492;11.548;2022-10-31T07:21:02;13.00;99.90
31391;DHT22;18022;45.492;11.548;2022-10-31T07:23:27;13.10;99.90
31391;DHT22;18022;45.492;11.548;2022-10-31T07:25:57;13.20;99.90
31391;DHT22;18022;45.492;11.548;2022-10-31T07:28:23;13.30;99.90
31391;DHT22;18022;45.492;11.548;2022-10-31T07:30:53;13.50;99.90
31391;DHT22;18022;45.492;11.548;2022-10-31T07:33:19;13.50;99.90
31391;DHT22;18022;45.492;11.548;2022-10-31T07:35:45;13.60;99.90
31391;DHT22;18022;45.492;11.548;2022-10-31T07:38:13;13.70;99.90
31391;DHT22;18022;45.492;11.548;2022-10-31T07:40:39;13.80;99.90
31391;DHT22;18022;45.492;11.548;2022-10-31T07:43:06;14.00;99.90
31391;DHT22;18022;45.492;11.548;2022-10-31T07:45:31;14.10;99.90
31391;DHT22;18022;45.492;11.548;2022-10-31T07:47:57;14.30;99.90
31391;DHT22;18022;45.492;11.548;2022-10-31T07:50:25;14.30;99.90
31391;DHT22;18022;45.492;11.548;2022-10-31T07:53:06;14.40;99.90
31391;DHT22;18022;45.492;11.548;2022-10-31T07:55:32;14.50;99.90
31391;DHT22;18022;45.492;11.548;2022-10-31T07:58:03;14.70;99.90
31391;DHT22;18022;45.492;11.548;2022-10-31T08:00:31;14.80;99.90
31391;DHT22;18022;45.492;11.548;2022-10-31T08:03:08;15.00;99.90
31391;DHT22;18022;45.492;11.548;2022-10-31T08:05:34;15.10;99.90
31391;DHT22;18022;45.492;11.548;2022-10-31T08:08:01;15.20;99.90
31391;DHT22;18022;45.492;11.548;2022-10-31T08:10:28;15.30;99.90
31391;DHT22;18022;45.492;11.548;2022-10-31T08:13:02;15.50;99.90
31391;DHT22;18022;45.492;11.548;2022-10-31T08:15:29;15.60;99.90
31391;DHT22;18022;45.492;11.548;2022-10-31T08:17:55;15.70;99.90
31391;DHT22;18022;45.492;11.548;2022-10-31T08:20:21;15.90;99.90
31391;DHT22;18022;45.492;11.548;2022-10-31T08:23:01;16.00;99.90
31391;DHT22;18022;45.492;11.548;2022-10-31T08:25:30;16.10;99.90
31391;DHT22;18022;45.492;11.548;2022-10-31T08:27:56;16.20;99.90
31391;DHT22;18022;45.492;11.548;2022-10-31T08:30:27;16.30;99.90
31391;DHT22;18022;45.492;11.548;2022-10-31T08:35:27;16.60;99.90
31391;DHT22;18022;45.492;11.548;2022-10-31T08:37:54;16.70;99.90
31391;DHT22;18022;45.492;11.548;2022-10-31T08:40:21;16.80;99.90
31391;DHT22;18022;45.492;11.548;2022-10-31T08:42:46;17.00;99.90
31391;DHT22;18022;45.492;11.548;2022-10-31T08:45:12;17.00;99.90
31391;DHT22;18022;45.492;11.548;2022-10-31T08:47:38;17.10;99.90
31391;DHT22;18022;45.492;11.548;2022-10-31T08:50:04;17.20;99.90
31391;DHT22;18022;45.492;11.548;2022-10-31T08:52:30;17.20;99.90
31391;DHT22;18022;45.492;11.548;2022-10-31T08:54:55;17.30;99.90
31391;DHT22;18022;45.492;11.548;2022-10-31T08:57:21;17.50;99.90
31391;DHT22;18022;45.492;11.548;2022-10-31T08:59:47;17.60;99.90
31391;DHT22;18022;45.492;11.548;2022-10-31T09:02:12;17.60;99.90
31391;DHT22;18022;45.492;11.548;2022-10-31T09:04:38;17.50;99.90
31391;DHT22;18022;45.492;11.548;2022-10-31T09:07:04;17.60;99.90
31391;DHT22;18022;45.492;11.548;2022-10-31T09:09:29;17.60;99.90
31391;DHT22;18022;45.492;11.548;2022-10-31T09:11:55;17.70;99.90
31391;DHT22;18022;45.492;11.548;2022-10-31T09:14:21;17.80;99.90
31391;DHT22;18022;45.492;11.548;2022-10-31T09:16:46;18.00;99.90
31391;DHT22;18022;45.492;11.548;2022-10-31T09:19:12;18.40;99.90
31391;DHT22;18022;45.492;11.548;2022-10-31T09:21:37;18.40;99.90
31391;DHT22;18022;45.492;11.548;2022-10-31T09:24:03;18.40;99.90
31391;DHT22;18022;45.492;11.548;2022-10-31T09:26:29;18.60;99.90
31391;DHT22;18022;45.492;11.548;2022-10-31T09:28:56;18.70;99.90
31391;DHT22;18022;45.492;11.548;2022-10-31T09:31:23;18.80;99.90
31391;DHT22;18022;45.492;11.548;2022-10-31T09:33:48;19.00;99.90
31391;DHT22;18022;45.492;11.548;2022-10-31T09:36:14;18.90;99.90
31391;DHT22;18022;45.492;11.548;2022-10-31T09:38:39;18.90;99.90
31391;DHT22;18022;45.492;11.548;2022-10-31T09:41:29;19.00;99.90
31391;DHT22;18022;45.492;11.548;2022-10-31T09:52:29;19.40;99.90
31391;DHT22;18022;45.492;11.548;2022-10-31T09:55:15;19.40;99.90
31391;DHT22;18022;45.492;11.548;2022-10-31T09:57:42;19.70;99.90
31391;DHT22;18022;45.492;11.548;2022-10-31T10:00:20;19.90;99.90
31391;DHT22;18022;45.492;11.548;2022-10-31T10:05:14;20.00;99.90
31391;DHT22;18022;45.492;11.548;2022-10-31T10:10:39;20.20;99.90
31391;DHT22;18022;45.492;11.548;2022-10-31T10:15:49;20.20;99.90
31391;DHT22;18022;45.492;11.548;2022-10-31T10:18:32;20.20;99.90
31391;DHT22;18022;45.492;11.548;2022-10-31T10:26:18;20.30;99.90
31391;DHT22;18022;45.492;11.548;2022-10-31T10:28:52;20.50;99.90
31391;DHT22;18022;45.492;11.548;2022-10-31T10:31:23;20.60;99.90
31391;DHT22;18022;45.492;11.548;2022-10-31T10:33:59;21.00;99.90
31391;DHT22;18022;45.492;11.548;2022-10-31T10:37:04;21.00;99.90
31391;DHT22;18022;45.492;11.548;2022-10-31T10:39:31;21.10;99.90
31391;DHT22;18022;45.492;11.548;2022-10-31T10:41:59;21.20;99.90
31391;DHT22;18022;45.492;11.548;2022-10-31T10:44:49;21.30;99.90
31391;DHT22;18022;45.492;11.548;2022-10-31T10:47:42;21.20;99.90
31391;DHT22;18022;45.492;11.548;2022-10-31T10:56:09;21.50;99.90
31391;DHT22;18022;45.492;11.548;2022-10-31T10:58:39;21.40;99.90
31391;DHT22;18022;45.492;11.548;2022-10-31T11:01:12;21.30;99.90
31391;DHT22;18022;45.492;11.548;2022-10-31T11:03:39;21.30;99.90
31391;DHT22;18022;45.492;11.548;2022-10-31T11:06:16;21.40;99.90
31391;DHT22;18022;45.492;11.548;2022-10-31T11:08:44;21.70;99.90
31391;DHT22;18022;45.492;11.548;2022-10-31T11:11:25;21.60;99.90
31391;DHT22;18022;45.492;11.548;2022-10-31T11:13:58;21.60;99.90
31391;DHT22;18022;45.492;11.548;2022-10-31T11:16:31;21.70;99.90
31391;DHT22;18022;45.492;11.548;2022-10-31T11:19:26;21.80;99.90
31391;DHT22;18022;45.492;11.548;2022-10-31T11:21:53;21.70;99.90
31391;DHT22;18022;45.492;11.548;2022-10-31T11:24:21;21.70;99.90
31391;DHT22;18022;45.492;11.548;2022-10-31T11:26:49;21.70;99.90
31391;DHT22;18022;45.492;11.548;2022-10-31T11:29:22;21.70;99.90
31391;DHT22;18022;45.492;11.548;2022-10-31T11:31:52;21.60;99.90
31391;DHT22;18022;45.492;11.548;2022-10-31T11:34:36;21.60;99.90
31391;DHT22;18022;45.492;11.548;2022-10-31T11:37:27;21.70;99.90
31391;DHT22;18022;45.492;11.548;2022-10-31T11:39:57;21.80;99.90
31391;DHT22;18022;45.492;11.548;2022-10-31T11:42:29;22.00;99.90
31391;DHT22;18022;45.492;11.548;2022-10-31T11:45:05;21.90;99.90
31391;DHT22;18022;45.492;11.548;2022-10-31T11:47:33;21.90;99.90
31391;DHT22;18022;45.492;11.548;2022-10-31T11:50:02;21.90;99.90
31391;DHT22;18022;45.492;11.548;2022-10-31T11:52:37;22.00;99.90
31391;DHT22;18022;45.492;11.548;2022-10-31T11:57:50;22.20;99.90
31391;DHT22;18022;45.492;11.548;2022-10-31T12:00:27;22.40;99.90
31391;DHT22;18022;45.492;11.548;2022-10-31T12:06:05;22.30;99.90
31391;DHT22;18022;45.492;11.548;2022-10-31T12:08:34;22.40;99.90
31391;DHT22;18022;45.492;11.548;2022-10-31T12:16:39;22.60;99.90
31391;DHT22;18022;45.492;11.548;2022-10-31T12:28:32;23.00;99.90
31391;DHT22;18022;45.492;11.548;2022-10-31T12:42:24;23.20;99.90
31391;DHT22;18022;45.492;11.548;2022-10-31T12:45:07;23.30;99.90
31391;DHT22;18022;45.492;11.548;2022-10-31T12:48:00;23.30;99.90
31391;DHT22;18022;45.492;11.548;2022-10-31T12:53:52;23.20;99.90
31391;DHT22;18022;45.492;11.548;2022-10-31T13:04:05;23.00;99.90
31391;DHT22;18022;45.492;11.548;2022-10-31T13:06:43;23.20;99.90
31391;DHT22;18022;45.492;11.548;2022-10-31T13:09:15;23.30;99.90
31391;DHT22;18022;45.492;11.548;2022-10-31T13:11:43;23.40;99.90
31391;DHT22;18022;45.492;11.548;2022-10-31T13:16:46;23.50;99.90
31391;DHT22;18022;45.492;11.548;2022-10-31T13:19:23;23.50;99.90
31391;DHT22;18022;45.492;11.548;2022-10-31T13:24:42;23.40;99.90
31391;DHT22;18022;45.492;11.548;2022-10-31T13:27:21;23.40;99.90
31391;DHT22;18022;45.492;11.548;2022-10-31T13:32:22;23.50;99.90
31391;DHT22;18022;45.492;11.548;2022-10-31T13:34:56;23.40;99.90
31391;DHT22;18022;45.492;11.548;2022-10-31T13:45:21;23.40;99.90
31391;DHT22;18022;45.492;11.548;2022-10-31T13:50:42;23.50;99.90
31391;DHT22;18022;45.492;11.548;2022-10-31T13:53:14;23.40;99.90
31391;DHT22;18022;45.492;11.548;2022-10-31T13:55:48;23.40;99.90
31391;DHT22;18022;45.492;11.548;2022-10-31T13:58:23;23.40;99.90
31391;DHT22;18022;45.492;11.548;2022-10-31T14:03:25;23.30;99.90
31391;DHT22;18022;45.492;11.548;2022-10-31T14:05:53;23.30;99.90
31391;DHT22;18022;45.492;11.548;2022-10-31T14:08:21;23.20;99.90
31391;DHT22;18022;45.492;11.548;2022-10-31T14:10:51;23.10;99.90
31391;DHT22;18022;45.492;11.548;2022-10-31T14:13:32;23.10;99.90
31391;DHT22;18022;45.492;11.548;2022-10-31T14:16:28;23.10;99.90
31391;DHT22;18022;45.492;11.548;2022-10-31T14:19:05;23.00;99.90
31391;DHT22;18022;45.492;11.548;2022-10-31T14:21:38;23.00;99.90
31391;DHT22;18022;45.492;11.548;2022-10-31T14:29:23;23.00;99.90
31391;DHT22;18022;45.492;11.548;2022-10-31T14:32:04;22.90;99.90
31391;DHT22;18022;45.492;11.548;2022-10-31T14:37:58;22.80;99.90
31391;DHT22;18022;45.492;11.548;2022-10-31T14:40:42;22.60;99.90
31391;DHT22;18022;45.492;11.548;2022-10-31T14:43:40;22.50;99.90
31391;DHT22;18022;45.492;11.548;2022-10-31T14:48:51;22.30;99.90
31391;DHT22;18022;45.492;11.548;2022-10-31T14:51:21;22.10;99.90
31391;DHT22;18022;45.492;11.548;2022-10-31T14:53:55;22.00;99.90
31391;DHT22;18022;45.492;11.548;2022-10-31T14:56:33;22.00;99.90
31391;DHT22;18022;45.492;11.548;2022-10-31T14:59:06;21.90;99.90
31391;DHT22;18022;45.492;11.548;2022-10-31T15:01:36;21.70;99.90
31391;DHT22;18022;45.492;11.548;2022-10-31T15:04:15;21.60;99.90
31391;DHT22;18022;45.492;11.548;2022-10-31T15:06:48;21.50;99.90
31391;DHT22;18022;45.492;11.548;2022-10-31T15:09:29;21.60;99.90
31391;DHT22;18022;45.492;11.548;2022-10-31T15:11:55;21.60;99.90
31391;DHT22;18022;45.492;11.548;2022-10-31T15:14:29;21.60;99.90
31391;DHT22;18022;45.492;11.548;2022-10-31T15:16:57;21.60;99.90
31391;DHT22;18022;45.492;11.548;2022-10-31T15:19:26;21.50;99.90
31391;DHT22;18022;45.492;11.548;2022-10-31T15:21:53;21.40;99.90
31391;DHT22;18022;45.492;11.548;2022-10-31T15:24:20;21.30;99.90
31391;DHT22;18022;45.492;11.548;2022-10-31T15:26:53;21.30;99.90
31391;DHT22;18022;45.492;11.548;2022-10-31T15:29:24;21.20;99.90
31391;DHT22;18022;45.492;11.548;2022-10-31T15:31:57;21.10;99.90
31391;DHT22;18022;45.492;11.548;2022-10-31T15:34:50;21.00;99.90
31391;DHT22;18022;45.492;11.548;2022-10-31T15:37:21;20.90;99.90
31391;DHT22;18022;45.492;11.548;2022-10-31T15:39:48;20.70;99.90
31391;DHT22;18022;45.492;11.548;2022-10-31T15:42:20;20.60;99.90
31391;DHT22;18022;45.492;11.548;2022-10-31T15:44:51;20.50;99.90
31391;DHT22;18022;45.492;11.548;2022-10-31T15:47:20;20.40;99.90
31391;DHT22;18022;45.492;11.548;2022-10-31T15:49:55;20.30;99.90
31391;DHT22;18022;45.492;11.548;2022-10-31T15:52:34;20.20;99.90
31391;DHT22;18022;45.492;11.548;2022-10-31T15:55:15;20.10;99.90
31391;DHT22;18022;45.492;11.548;2022-10-31T15:57:50;20.00;99.90
31391;DHT22;18022;45.492;11.548;2022-10-31T16:05:50;19.70;99.90
31391;DHT22;18022;45.492;11.548;2022-10-31T16:08:36;19.70;99.90
31391;DHT22;18022;45.492;11.548;2022-10-31T16:13:56;19.40;99.90
31391;DHT22;18022;45.492;11.548;2022-10-31T16:16:23;19.30;99.90
31391;DHT22;18022;45.492;11.548;2022-10-31T16:18:51;19.20;99.90
31391;DHT22;18022;45.492;11.548;2022-10-31T16:21:30;19.20;99.90
31391;DHT22;18022;45.492;11.548;2022-10-31T16:24:03;19.10;99.90
31391;DHT22;18022;45.492;11.548;2022-10-31T16:26:30;19.10;99.90
31391;DHT22;18022;45.492;11.548;2022-10-31T16:28:57;19.00;99.90
31391;DHT22;18022;45.492;11.548;2022-10-31T16:31:38;18.90;99.90
31391;DHT22;18022;45.492;11.548;2022-10-31T16:34:15;19.10;99.90
31391;DHT22;18022;45.492;11.548;2022-10-31T16:36:42;19.50;99.90
31391;DHT22;18022;45.492;11.548;2022-10-31T16:39:09;19.30;99.90
31391;DHT22;18022;45.492;11.548;2022-10-31T16:41:38;19.00;99.90
31391;DHT22;18022;45.492;11.548;2022-10-31T16:44:12;18.70;99.90
31391;DHT22;18022;45.492;11.548;2022-10-31T16:46:39;18.60;99.90
31391;DHT22;18022;45.492;11.548;2022-10-31T16:49:07;18.50;99.90
31391;DHT22;18022;45.492;11.548;2022-10-31T16:51:33;18.60;99.90
31391;DHT22;18022;45.492;11.548;2022-10-31T16:53:58;18.90;99.90
31391;DHT22;18022;45.492;11.548;2022-10-31T16:56:28;19.10;99.90
31391;DHT22;18022;45.492;11.548;2022-10-31T16:58:55;18.90;99.90
31391;DHT22;18022;45.492;11.548;2022-10-31T17:01:21;18.70;99.90
31391;DHT22;18022;45.492;11.548;2022-10-31T17:03:46;18.50;99.90
31391;DHT22;18022;45.492;11.548;2022-10-31T17:06:13;18.20;99.90
31391;DHT22;18022;45.492;11.548;2022-10-31T17:08:39;18.20;99.90
31391;DHT22;18022;45.492;11.548;2022-10-31T17:11:05;18.20;99.90
31391;DHT22;18022;45.492;11.548;2022-10-31T17:13:33;18.10;99.90
31391;DHT22;18022;45.492;11.548;2022-10-31T17:16:01;17.80;99.90
31391;DHT22;18022;45.492;11.548;2022-10-31T17:18:27;17.70;99.90
31391;DHT22;18022;45.492;11.548;2022-10-31T17:21:01;17.60;99.90
31391;DHT22;18022;45.492;11.548;2022-10-31T17:23:28;17.60;99.90
31391;DHT22;18022;45.492;11.548;2022-10-31T17:25:54;17.60;99.90
31391;DHT22;18022;45.492;11.548;2022-10-31T17:28:20;17.50;99.90
31391;DHT22;18022;45.492;11.548;2022-10-31T17:30:46;17.40;99.90
31391;DHT22;18022;45.492;11.548;2022-10-31T17:33:13;17.40;99.90
31391;DHT22;18022;45.492;11.548;2022-10-31T17:35:40;17.30;99.90
31391;DHT22;18022;45.492;11.548;2022-10-31T17:38:06;17.20;99.90
31391;DHT22;18022;45.492;11.548;2022-10-31T17:40:32;17.20;99.90
31391;DHT22;18022;45.492;11.548;2022-10-31T17:42:57;17.00;99.90
31391;DHT22;18022;45.492;11.548;2022-10-31T17:45:24;17.00;99.90
31391;DHT22;18022;45.492;11.548;2022-10-31T17:47:51;17.00;99.90
31391;DHT22;18022;45.492;11.548;2022-10-31T17:50:20;16.90;99.90
31391;DHT22;18022;45.492;11.548;2022-10-31T17:52:46;16.70;99.90
31391;DHT22;18022;45.492;11.548;2022-10-31T17:55:15;16.60;99.90
31391;DHT22;18022;45.492;11.548;2022-10-31T17:57:42;16.70;99.90
31391;DHT22;18022;45.492;11.548;2022-10-31T18:00:18;17.60;99.90
31391;DHT22;18022;45.492;11.548;2022-10-31T18:02:53;20.50;99.90
31391;DHT22;18022;45.492;11.548;2022-10-31T18:05:22;21.80;99.90
31391;DHT22;18022;45.492;11.548;2022-10-31T18:07:50;25.00;99.90
31391;DHT22;18022;45.492;11.548;2022-10-31T18:10:19;28.70;97.90